طرطوس, سوريا

03:02 PM EEST on أمتèبر 01, 2016 (GMT +0300)
Bassel Al-Assad International | | Change Station

Elev 154 ft 35.40 °N, 35.95 °E | Updated 2 minutes ago

Clear
صافية
88 °F
Feels Like 86 °F
N
12
ريح متغير ريح from غرب

هذا اليوم
High -- | Low -- °F
--% Chance of Precip.
Yesterday
High -- | Low -- °F
Precip. -- في
الضغط 29.92 في
وضوح الرؤية -9999.0 أميال
سحابات
مؤشر الحرارة 86 °F
نقطة الندى 57 °F
الرطوبة 35%
Rainfall 0.00 في
عمق الثلج Not available.
6:31 AM 6:20 PM
قمر جدید, 0% visible
METAR OSLK 011200Z 28010KT CAVOK 31/14 Q1013
الضغط 29.92 في
وضوح الرؤية -9999.0 أميال
سحابات
مؤشر الحرارة 86 °F
نقطة الندى 57 °F
الرطوبة 35%
Rainfall 0.00 في
عمق الثلج Not available.
6:31 AM 6:20 PM
قمر جدید, 0% visible
METAR OSLK 011200Z 28010KT CAVOK 31/14 Q1013

10-Day Weather Forecast

No radar image for this location.
×

Almanac

علم الفلك

Oct. 01, 2016 Rise Set
Actual Time
Civil Twilight
Nautical Twilight
Astronomical Twilight
قمر
Length Of Visible Light
طول الیوم
Tomorrow will be .
, % of the Moon is Illuminated

Today's Extremes

Country Highs Country Lows

Community

WunderPhotos

Upload Photos

1,942,918 photos uploaded!

WunderBlog® & News

Nearby

جودة الهواء

  جودة الهواء AQ Index Pollutant
Not available.

عمق الثلج

Station Depth Elevation

Earthquake Activity

City Distance Mag. Time & Date
Minimum magnitude displayed is 2.5.

Coastal Water Temperatures

مكان درجات الحرارة

Stations

Nearby Weather Stations

Station Location الحرارة رياح باردة نقطة الندى الرطوبة ريح Precip. Elev تحديث Type